Time;durP1;ratioP1;P1;durP2;ratioP2;P2;SDS_P1;SDS_P2;PMS_P1;PMS_P2;Temp;Humidity;BMP_temperature;BMP_pressure;BME280_temperature;BME280_humidity;BME280_pressure;Samples;Min_cycle;Max_cycle;Signal;HPM_P1;HPM_P2
2023/06/25 00:00:22;;;;;;;4.40;1.70;;;;;;;19.89;100.00;100738.05;105806;1255;73656;-44
2023/06/25 00:02:50;;;;;;;2.80;1.70;;;;;;;19.83;100.00;100726.80;105796;1266;65365;-44
2023/06/25 00:05:17;;;;;;;2.60;1.60;;;;;;;19.74;100.00;100720.80;105865;1257;72630;-44
2023/06/25 00:07:43;;;;;;;2.90;1.40;;;;;;;19.65;100.00;100708.83;105699;1257;60922;-42
2023/06/25 00:10:11;;;;;;;3.30;1.40;;;;;;;19.53;100.00;100702.95;105733;1254;60408;-43
2023/06/25 00:12:38;;;;;;;2.80;1.20;;;;;;;19.33;100.00;100693.49;105690;1259;73893;-42
2023/06/25 00:15:06;;;;;;;9.30;1.30;;;;;;;19.13;100.00;100675.95;105680;1257;65470;-41
2023/06/25 00:17:34;;;;;;;6.40;1.30;;;;;;;18.98;100.00;100665.67;105814;1256;71294;-42
2023/06/25 00:20:01;;;;;;;4.60;1.30;;;;;;;18.88;100.00;100659.34;105797;1257;61962;-41
2023/06/25 00:22:29;;;;;;;4.90;1.40;;;;;;;18.79;100.00;100652.77;105804;1257;60440;-42
2023/06/25 00:24:56;;;;;;;11.10;2.10;;;;;;;18.72;100.00;100646.15;105794;1257;73862;-42
2023/06/25 00:27:23;;;;;;;13.70;1.40;;;;;;;18.69;100.00;100629.86;105823;1256;65197;-41
2023/06/25 00:29:50;;;;;;;3.80;1.60;;;;;;;18.68;100.00;100623.11;105765;1257;71707;-43
2023/06/25 00:32:16;;;;;;;7.50;1.60;;;;;;;18.66;100.00;100608.14;105748;1256;61926;-41
2023/06/25 00:34:43;;;;;;;5.70;2.10;;;;;;;18.64;100.00;100598.98;105577;1253;60543;-41
2023/06/25 00:37:17;;;;;;;9.70;1.60;;;;;;;18.64;100.00;100583.46;105979;1259;73630;-42
2023/06/25 00:39:45;;;;;;;4.20;2.00;;;;;;;18.64;100.00;100564.91;105713;1258;66160;-42
2023/06/25 00:42:13;;;;;;;5.50;2.10;;;;;;;18.65;100.00;100548.61;105640;1259;72638;-41
2023/06/25 00:44:40;;;;;;;8.60;1.50;;;;;;;18.65;100.00;100537.27;105651;1258;62401;-42
2023/06/25 00:47:12;;;;;;;5.30;2.20;;;;;;;18.62;100.00;100529.55;105725;1260;60430;-44
2023/06/25 00:49:42;;;;;;;6.50;2.10;;;;;;;18.60;100.00;100513.74;105447;1260;267953;-43
2023/06/25 00:53:34;;;;;;;4.70;1.80;;;;;;;18.59;100.00;100499.47;102832;1289;601257;-42
2023/06/25 00:56:03;;;;;;;4.40;2.00;;;;;;;18.56;100.00;100486.88;104800;1270;60458;-43
2023/06/25 00:58:34;;;;;;;7.40;2.00;;;;;;;18.55;100.00;100477.13;104791;1267;59686;-42
2023/06/25 01:01:03;;;;;;;10.60;1.90;;;;;;;18.54;100.00;100474.56;105089;1270;71954;-44
2023/06/25 01:03:36;;;;;;;4.30;2.10;;;;;;;18.55;100.00;100467.70;104827;1271;65125;-41
2023/06/25 01:06:12;;;;;;;5.80;2.00;;;;;;;18.55;100.00;100456.19;104874;1266;249194;-41
2023/06/25 01:08:42;;;;;;;1.80;1.70;;;;;;;18.56;100.00;100446.50;105135;1269;61610;-42
2023/06/25 01:11:10;;;;;;;5.80;1.80;;;;;;;18.59;100.00;100443.41;105189;1267;59326;-42
2023/06/25 01:13:39;;;;;;;12.70;2.20;;;;;;;18.61;100.00;100434.36;105084;1270;72173;-43
2023/06/25 01:16:06;;;;;;;7.20;2.40;;;;;;;18.63;100.00;100424.98;105075;1263;64003;-44
2023/06/25 01:18:39;;;;;;;4.30;1.70;;;;;;;18.64;100.00;100423.55;105136;1263;70581;-44
2023/06/25 01:21:17;;;;;;;3.40;1.50;;;;;;;18.66;100.00;100420.47;105129;1267;61655;-42
2023/06/25 01:23:45;;;;;;;6.60;2.30;;;;;;;18.69;100.00;100419.11;105181;1269;59697;-42
2023/06/25 01:26:13;;;;;;;7.10;2.20;;;;;;;18.70;100.00;100421.00;105151;1261;71786;-43
2023/06/25 01:28:41;;;;;;;7.20;2.00;;;;;;;18.69;100.00;100421.54;104812;1271;63276;-43
2023/06/25 01:31:09;;;;;;;6.10;1.90;;;;;;;18.70;100.00;100424.48;105059;1264;72667;-44
2023/06/25 01:33:38;;;;;;;8.20;2.10;;;;;;;18.71;100.00;100424.95;105102;1270;60432;-43
2023/06/25 01:36:06;;;;;;;3.70;2.10;;;;;;;18.73;100.00;100424.30;105024;1269;60685;-44
2023/06/25 01:38:33;;;;;;;2.10;1.80;;;;;;;18.75;100.00;100428.60;105089;1264;71806;-44
2023/06/25 01:41:01;;;;;;;8.40;1.90;;;;;;;18.75;100.00;100427.88;105089;1269;64023;-44
2023/06/25 01:43:30;;;;;;;7.10;2.90;;;;;;;18.75;100.00;100430.31;104850;1271;71365;-42
2023/06/25 01:45:58;;;;;;;3.60;2.10;;;;;;;18.75;100.00;100428.73;105256;1267;61632;-44
2023/06/25 01:48:26;;;;;;;6.90;2.10;;;;;;;18.75;100.00;100421.23;105077;1266;60789;-43
2023/06/25 01:50:54;;;;;;;4.40;1.90;;;;;;;18.75;100.00;100419.81;105119;1264;70980;-41
2023/06/25 01:53:21;;;;;;;6.60;2.30;;;;;;;18.76;100.00;100419.42;105035;1269;65823;-43
2023/06/25 01:55:49;;;;;;;3.60;2.00;;;;;;;18.78;100.00;100417.21;105010;1264;72020;-43
2023/06/25 01:58:16;;;;;;;14.90;2.40;;;;;;;18.79;100.00;100415.75;104849;1269;60452;-43
2023/06/25 02:00:44;;;;;;;9.60;2.60;;;;;;;18.79;100.00;100413.15;104785;1270;59663;-43
2023/06/25 02:03:11;;;;;;;10.70;2.60;;;;;;;18.79;100.00;100410.34;105475;1258;72601;-42
2023/06/25 02:05:41;;;;;;;4.10;2.40;;;;;;;18.81;100.00;100414.11;105562;1257;63873;-43
2023/06/25 02:08:09;;;;;;;6.40;3.70;;;;;;;18.82;100.00;100411.95;105402;1264;71087;-43
2023/06/25 02:10:38;;;;;;;4.90;2.90;;;;;;;18.84;100.00;100415.36;105502;1257;61658;-43
2023/06/25 02:13:06;;;;;;;10.10;3.60;;;;;;;18.86;100.00;100418.05;105502;1256;59570;-43
2023/06/25 02:15:33;;;;;;;8.70;3.40;;;;;;;18.88;100.00;100417.73;105368;1257;72991;-41
2023/06/25 02:18:02;;;;;;;11.30;3.60;;;;;;;18.91;100.00;100416.70;105567;1257;64060;-43
2023/06/25 02:20:30;;;;;;;5.80;3.60;;;;;;;18.93;100.00;100412.02;105567;1262;71392;-42
2023/06/25 02:22:58;;;;;;;7.30;3.70;;;;;;;18.97;100.00;100420.08;105464;1262;60716;-43
2023/06/25 02:25:25;;;;;;;9.20;3.50;;;;;;;18.99;100.00;100423.13;105611;1258;60038;-41
2023/06/25 02:27:53;;;;;;;7.50;4.30;;;;;;;19.00;100.00;100421.66;105483;1258;71895;-41
2023/06/25 02:30:21;;;;;;;7.80;4.00;;;;;;;19.02;100.00;100418.29;105444;1263;65205;-43
2023/06/25 02:32:48;;;;;;;10.50;4.90;;;;;;;19.03;100.00;100419.77;105550;1257;70970;-41
2023/06/25 02:35:16;;;;;;;13.20;4.90;;;;;;;19.06;100.00;100422.40;105410;1263;60387;-42
2023/06/25 02:37:44;;;;;;;9.20;4.60;;;;;;;19.10;100.00;100424.61;105475;1261;60212;-43
2023/06/25 02:40:12;;;;;;;9.60;6.20;;;;;;;19.15;100.00;100423.48;105463;1257;71850;-45
2023/06/25 02:42:40;;;;;;;10.20;6.60;;;;;;;19.20;100.00;100423.04;105425;1263;65147;-41
2023/06/25 02:45:10;;;;;;;11.90;6.30;;;;;;;19.25;100.00;100419.79;105378;1261;72667;-42
2023/06/25 02:47:38;;;;;;;8.50;6.00;;;;;;;19.28;100.00;100419.45;105536;1258;60485;-44
2023/06/25 02:50:07;;;;;;;11.50;7.10;;;;;;;19.33;100.00;100421.80;105359;1263;59631;-42
2023/06/25 02:52:35;;;;;;;11.90;7.40;;;;;;;19.35;100.00;100423.08;105864;1251;71765;-41
2023/06/25 02:55:03;;;;;;;12.90;7.60;;;;;;;19.38;100.00;100425.52;105774;1251;62937;-41
2023/06/25 02:57:32;;;;;;;15.20;6.70;;;;;;;19.41;100.00;100421.70;105752;1257;71530;-41
2023/06/25 03:00:00;;;;;;;13.40;7.00;;;;;;;19.46;100.00;100422.67;105804;1257;61129;-41
2023/06/25 03:02:28;;;;;;;12.40;6.90;;;;;;;19.51;100.00;100420.98;105645;1251;59969;-43
2023/06/25 03:04:56;;;;;;;16.30;6.80;;;;;;;19.57;100.00;100420.32;105645;1258;73066;-40
2023/06/25 03:07:25;;;;;;;12.80;6.80;;;;;;;19.58;100.00;100420.06;105821;1256;64383;-41
2023/06/25 03:09:53;;;;;;;10.10;6.90;;;;;;;19.59;100.00;100422.15;105566;1260;72686;-43
2023/06/25 03:12:20;;;;;;;19.00;6.50;;;;;;;19.59;100.00;100424.58;105625;1254;59846;-41
2023/06/25 03:14:48;;;;;;;20.20;7.40;;;;;;;19.59;100.00;100423.36;105676;1257;59696;-41
2023/06/25 03:17:16;;;;;;;13.40;7.90;;;;;;;19.60;100.00;100424.90;105986;1256;73081;-41
2023/06/25 03:19:46;;;;;;;10.60;7.90;;;;;;;19.62;100.00;100418.80;105629;1257;63952;-41
2023/06/25 03:22:13;;;;;;;14.30;8.40;;;;;;;19.65;100.00;100419.35;105807;1253;71467;-42
2023/06/25 03:24:43;;;;;;;18.80;9.10;;;;;;;19.68;100.00;100420.73;105819;1251;60722;-43
2023/06/25 03:27:11;;;;;;;9.90;8.10;;;;;;;19.70;100.00;100418.73;105816;1251;59528;-42
2023/06/25 03:29:39;;;;;;;11.40;8.30;;;;;;;19.74;100.00;100414.99;105764;1257;72959;-43
2023/06/25 03:32:08;;;;;;;18.80;9.60;;;;;;;19.80;100.00;100413.02;105858;1256;64239;-43
2023/06/25 03:34:37;;;;;;;16.10;9.90;;;;;;;19.83;100.00;100410.77;105612;1254;72571;-41
2023/06/25 03:37:05;;;;;;;15.30;10.20;;;;;;;19.84;100.00;100409.34;105948;1253;60620;-42
2023/06/25 03:39:33;;;;;;;16.00;10.60;;;;;;;19.85;100.00;100411.05;105701;1252;59621;-41
2023/06/25 03:42:00;;;;;;;16.40;10.20;;;;;;;19.88;100.00;100411.38;105801;1257;72214;-43
2023/06/25 03:44:28;;;;;;;13.10;10.20;;;;;;;19.90;100.00;100410.20;105803;1257;64594;-43
2023/06/25 03:46:56;;;;;;;22.00;13.60;;;;;;;19.94;100.00;100406.81;105778;1257;71421;-42
2023/06/25 03:49:24;;;;;;;19.50;12.70;;;;;;;19.97;100.00;100406.35;105678;1259;60438;-43
2023/06/25 03:51:52;;;;;;;21.30;12.90;;;;;;;20.01;100.00;100404.49;105616;1259;59541;-44
2023/06/25 03:54:20;;;;;;;26.00;14.00;;;;;;;20.05;100.00;100403.75;105588;1254;71790;-44
2023/06/25 03:56:47;;;;;;;17.00;12.70;;;;;;;20.08;100.00;100404.28;105770;1254;65602;-44
2023/06/25 03:59:15;;;;;;;22.80;12.60;;;;;;;20.11;100.00;100403.73;105651;1254;71705;-44
2023/06/25 04:01:43;;;;;;;21.00;11.60;;;;;;;20.17;100.00;100405.31;105666;1259;60494;-44
2023/06/25 04:04:11;;;;;;;18.60;12.50;;;;;;;20.21;100.00;100409.29;105578;1258;59826;-43
2023/06/25 04:06:39;;;;;;;21.90;12.40;;;;;;;20.26;100.00;100410.92;105718;1259;72965;-42
2023/06/25 04:09:08;;;;;;;20.20;13.40;;;;;;;20.31;100.00;100412.92;105805;1251;64409;-42
2023/06/25 04:11:36;;;;;;;22.30;13.20;;;;;;;20.33;100.00;100413.66;105808;1254;71861;-42
2023/06/25 04:14:05;;;;;;;15.00;12.70;;;;;;;20.33;100.00;100421.69;105809;1252;60751;-43
2023/06/25 04:16:32;;;;;;;17.20;12.60;;;;;;;20.36;100.00;100428.23;105928;1251;59966;-44
2023/06/25 04:19:01;;;;;;;20.20;12.80;;;;;;;20.45;100.00;100428.71;105804;1251;73039;-42
2023/06/25 04:21:31;;;;;;;20.80;12.20;;;;;;;20.60;100.00;100429.94;105908;1253;64126;-43
2023/06/25 04:24:00;;;;;;;23.30;12.20;;;;;;;20.73;100.00;100435.08;105786;1251;72613;-43
2023/06/25 04:26:29;;;;;;;18.50;11.40;;;;;;;20.86;100.00;100441.88;105632;1251;59928;-43
2023/06/25 04:28:56;;;;;;;18.70;12.20;;;;;;;20.95;100.00;100446.58;105749;1251;59635;-42
2023/06/25 04:31:24;;;;;;;20.00;11.50;;;;;;;20.95;100.00;100450.42;105628;1251;72996;-41
2023/06/25 04:33:52;;;;;;;14.10;10.40;;;;;;;20.96;100.00;100452.80;105833;1251;65405;-41
2023/06/25 04:36:22;;;;;;;14.20;11.00;;;;;;;21.03;100.00;100448.75;105836;1251;72575;-43
2023/06/25 04:38:55;;;;;;;19.30;11.20;;;;;;;21.11;100.00;100450.89;105750;1251;59624;-41
2023/06/25 04:41:27;;;;;;;16.20;10.80;;;;;;;21.18;100.00;100448.65;105827;1251;59804;-43
2023/06/25 04:43:55;;;;;;;14.20;11.70;;;;;;;21.23;100.00;100449.05;105854;1257;72055;-42
2023/06/25 04:46:24;;;;;;;19.60;14.10;;;;;;;21.25;100.00;100447.86;105756;1257;64449;-41
2023/06/25 04:48:53;;;;;;;15.60;11.70;;;;;;;21.21;100.00;100453.95;106081;1254;71439;-41
2023/06/25 04:51:20;;;;;;;15.90;11.20;;;;;;;21.18;100.00;100451.45;105682;1251;61620;-42
2023/06/25 04:53:49;;;;;;;15.00;9.90;;;;;;;21.18;100.00;100450.44;105774;1256;59603;-45
2023/06/25 04:56:16;;;;;;;14.20;10.70;;;;;;;21.22;100.00;100451.02;105825;1257;73508;-44
2023/06/25 04:58:45;;;;;;;12.70;10.30;;;;;;;21.25;100.00;100449.24;105853;1251;64051;-45
2023/06/25 05:01:12;;;;;;;14.00;10.10;;;;;;;21.25;100.00;100453.28;105798;1254;70975;-44
2023/06/25 05:03:40;;;;;;;17.30;10.70;;;;;;;21.28;100.00;100457.19;105759;1253;61823;-42
2023/06/25 05:06:09;;;;;;;18.70;11.20;;;;;;;21.31;100.00;100456.80;105838;1256;60427;-43
2023/06/25 05:08:36;;;;;;;16.20;10.20;;;;;;;21.30;100.00;100454.80;105780;1252;72835;-44
2023/06/25 05:11:04;;;;;;;16.30;10.60;;;;;;;21.25;100.00;100459.99;105791;1257;64035;-43
2023/06/25 05:13:35;;;;;;;14.80;10.00;;;;;;;21.16;100.00;100462.66;105820;1252;72719;-44
2023/06/25 05:16:03;;;;;;;13.60;10.00;;;;;;;21.11;100.00;100470.33;105855;1257;60477;-43
2023/06/25 05:18:31;;;;;;;16.60;11.30;;;;;;;21.16;100.00;100475.29;105816;1256;60354;-43
2023/06/25 05:20:58;;;;;;;17.40;11.20;;;;;;;21.16;100.00;100477.02;105719;1251;73111;-43
2023/06/25 05:23:26;;;;;;;15.60;10.60;;;;;;;21.17;100.00;100477.33;105838;1257;64006;-45
2023/06/25 05:25:54;;;;;;;21.80;11.90;;;;;;;21.17;100.00;100479.61;105739;1254;71067;-42
2023/06/25 05:28:21;;;;;;;17.90;12.00;;;;;;;21.18;100.00;100483.90;105776;1251;60600;-44
2023/06/25 05:30:49;;;;;;;17.60;11.20;;;;;;;21.21;100.00;100484.97;105829;1251;60341;-42
2023/06/25 05:33:17;;;;;;;16.70;11.70;;;;;;;21.22;100.00;100481.58;105788;1251;72587;-41
2023/06/25 05:35:44;;;;;;;13.70;11.30;;;;;;;21.24;100.00;100484.94;105792;1251;64049;-42
2023/06/25 05:38:12;;;;;;;13.00;11.40;;;;;;;21.33;100.00;100489.83;105807;1257;71384;-46
2023/06/25 05:40:40;;;;;;;14.50;11.40;;;;;;;21.44;100.00;100495.09;105603;1255;60418;-43
2023/06/25 05:43:08;;;;;;;17.90;11.60;;;;;;;21.51;100.00;100496.40;105690;1251;60440;-43
2023/06/25 05:45:35;;;;;;;16.40;11.60;;;;;;;21.53;100.00;100499.45;105777;1257;72160;-43
2023/06/25 05:48:04;;;;;;;16.00;11.70;;;;;;;21.54;100.00;100502.52;105907;1251;64172;-42
2023/06/25 05:50:32;;;;;;;15.10;11.70;;;;;;;21.52;100.00;100503.05;105806;1253;71623;-42
2023/06/25 05:52:59;;;;;;;17.80;12.70;;;;;;;21.49;100.00;100504.08;105794;1254;60727;-43
2023/06/25 05:55:27;;;;;;;13.20;11.90;;;;;;;21.46;100.00;100502.34;105764;1256;60348;-42
2023/06/25 05:57:54;;;;;;;13.80;12.10;;;;;;;21.46;100.00;100506.07;105767;1254;74023;-43
2023/06/25 06:00:23;;;;;;;16.40;11.60;;;;;;;21.51;100.00;100505.88;105725;1253;64052;-44
2023/06/25 06:02:50;;;;;;;18.60;12.50;;;;;;;21.57;100.00;100506.05;105794;1257;71404;-41
2023/06/25 06:05:18;;;;;;;25.40;12.30;;;;;;;21.59;100.00;100502.43;105767;1257;61327;-44
2023/06/25 06:07:46;;;;;;;20.40;11.80;;;;;;;21.59;100.00;100505.96;105784;1252;60519;-42
2023/06/25 06:10:15;;;;;;;16.40;11.20;;;;;;;21.49;100.00;100508.11;105708;1254;73890;-44
2023/06/25 06:12:42;;;;;;;18.10;11.30;;;;;;;21.49;100.00;100508.85;105754;1257;64032;-44
2023/06/25 06:15:10;;;;;;;16.40;10.60;;;;;;;21.53;100.00;100511.23;105629;1254;71353;-43
2023/06/25 06:17:38;;;;;;;19.50;11.20;;;;;;;21.54;100.00;100512.05;105782;1254;62167;-41
2023/06/25 06:20:06;;;;;;;18.40;10.80;;;;;;;21.57;100.00;100509.05;105799;1257;60408;-44
2023/06/25 06:22:34;;;;;;;15.50;10.80;;;;;;;21.62;100.00;100512.24;105816;1257;73855;-41
2023/06/25 06:25:01;;;;;;;21.30;11.40;;;;;;;21.66;100.00;100510.45;105765;1257;65025;-42
2023/06/25 06:27:29;;;;;;;16.00;11.00;;;;;;;21.73;100.00;100506.33;105872;1257;71417;-41
2023/06/25 06:29:57;;;;;;;13.40;11.70;;;;;;;21.75;100.00;100507.44;105662;1254;60546;-43
2023/06/25 06:32:24;;;;;;;18.80;11.80;;;;;;;21.83;100.00;100505.86;105765;1254;60367;-41
2023/06/25 06:34:52;;;;;;;19.60;11.50;;;;;;;21.95;100.00;100502.27;105816;1254;73758;-42
2023/06/25 06:37:19;;;;;;;16.40;12.30;;;;;;;22.01;100.00;100502.23;105727;1254;64379;-45
2023/06/25 06:39:47;;;;;;;21.30;12.20;;;;;;;22.02;100.00;100500.55;105606;1257;71445;-41
2023/06/25 06:42:15;;;;;;;17.80;11.50;;;;;;;22.10;100.00;100499.50;105830;1254;60533;-42
2023/06/25 06:44:42;;;;;;;16.20;12.40;;;;;;;22.18;100.00;100504.95;105779;1256;60409;-42
2023/06/25 06:47:10;;;;;;;17.20;12.40;;;;;;;22.24;100.00;100501.76;105768;1252;73783;-41
2023/06/25 06:49:38;;;;;;;15.20;11.30;;;;;;;22.28;100.00;100507.99;105816;1254;63911;-42
2023/06/25 06:52:07;;;;;;;15.10;10.80;;;;;;;22.35;100.00;100513.13;105805;1255;72707;-42
2023/06/25 06:54:34;;;;;;;12.90;10.90;;;;;;;22.44;100.00;100517.16;105941;1255;60530;-42
2023/06/25 06:57:03;;;;;;;14.60;11.00;;;;;;;22.46;100.00;100524.40;105814;1256;60428;-43
2023/06/25 06:59:30;;;;;;;13.90;11.10;;;;;;;22.40;100.00;100528.84;105828;1257;73887;-43
2023/06/25 07:01:58;;;;;;;14.80;11.00;;;;;;;22.37;100.00;100540.44;105782;1254;65144;-43
2023/06/25 07:04:26;;;;;;;17.70;11.70;;;;;;;22.38;100.00;100548.62;105812;1257;71505;-43
2023/06/25 07:06:53;;;;;;;13.70;9.80;;;;;;;22.44;100.00;100563.37;105740;1256;60645;-41
2023/06/25 07:09:22;;;;;;;15.70;11.30;;;;;;;22.45;100.00;100570.88;105842;1256;60348;-44
2023/06/25 07:11:52;;;;;;;15.40;10.20;;;;;;;22.42;100.00;100572.46;105772;1254;72266;-42
2023/06/25 07:14:20;;;;;;;14.70;10.30;;;;;;;22.40;100.00;100584.35;105895;1257;63996;-44
2023/06/25 07:16:47;;;;;;;13.00;9.80;;;;;;;22.53;100.00;100589.54;105679;1252;72699;-43
2023/06/25 07:19:16;;;;;;;11.70;9.30;;;;;;;22.67;100.00;100590.52;105828;1253;61719;-44
2023/06/25 07:21:44;;;;;;;11.20;9.60;;;;;;;22.85;100.00;100597.74;105617;1254;60494;-42
2023/06/25 07:24:12;;;;;;;14.50;10.70;;;;;;;22.99;100.00;100604.91;105907;1254;73107;-45
2023/06/25 07:26:39;;;;;;;11.30;10.20;;;;;;;23.07;100.00;100616.17;105909;1253;63989;-43
2023/06/25 07:29:07;;;;;;;14.60;9.50;;;;;;;23.18;100.00;100632.14;105765;1256;71826;-43
2023/06/25 07:31:35;;;;;;;11.30;9.30;;;;;;;23.26;100.00;100644.64;105765;1251;61770;-43
2023/06/25 07:34:02;;;;;;;15.20;9.60;;;;;;;23.47;100.00;100650.21;105780;1254;60449;-43
2023/06/25 07:36:31;;;;;;;16.00;9.60;;;;;;;23.78;100.00;100654.60;105761;1257;73805;-42
2023/06/25 07:39:03;;;;;;;14.60;10.30;;;;;;;23.91;100.00;100667.96;105750;1254;64098;-43
2023/06/25 07:41:31;;;;;;;10.20;9.10;;;;;;;24.04;100.00;100699.63;105850;1257;71396;-44
2023/06/25 07:43:58;;;;;;;10.10;8.70;;;;;;;24.11;100.00;100741.41;105814;1256;60613;-44
2023/06/25 07:46:26;;;;;;;12.40;8.80;;;;;;;24.06;100.00;100806.34;105837;1254;60366;-42
2023/06/25 07:48:55;;;;;;;11.60;9.50;;;;;;;23.99;100.00;100863.86;105565;1253;72830;-41
2023/06/25 07:51:23;;;;;;;13.80;9.60;;;;;;;23.92;100.00;100899.05;105798;1257;65133;-46
2023/06/25 07:53:51;;;;;;;14.40;8.80;;;;;;;23.91;100.00;100919.24;105808;1254;71412;-44
2023/06/25 07:56:19;;;;;;;10.30;9.00;;;;;;;23.94;100.00;100921.48;105898;1253;60532;-43
2023/06/25 07:58:47;;;;;;;12.30;8.70;;;;;;;23.85;100.00;100932.80;105781;1257;60335;-42
2023/06/25 08:01:15;;;;;;;19.60;9.30;;;;;;;23.70;100.00;100943.69;105843;1252;73793;-44
2023/06/25 08:03:42;;;;;;;11.50;9.30;;;;;;;23.59;100.00;100952.14;105794;1256;64021;-44
2023/06/25 08:06:10;;;;;;;12.40;9.90;;;;;;;23.56;100.00;100946.02;105810;1253;71297;-42
2023/06/25 08:08:38;;;;;;;11.10;9.00;;;;;;;23.54;100.00;100942.38;105779;1253;61653;-41
2023/06/25 08:11:06;;;;;;;12.60;9.40;;;;;;;23.55;100.00;100947.11;105798;1251;60363;-41
2023/06/25 08:13:34;;;;;;;11.00;9.80;;;;;;;23.63;100.00;100943.27;105809;1251;74247;-41
2023/06/25 08:16:01;;;;;;;12.10;9.50;;;;;;;23.78;100.00;100942.08;105797;1256;64468;-41
2023/06/25 08:18:29;;;;;;;10.00;9.00;;;;;;;23.90;100.00;100941.48;105766;1255;72635;-41
2023/06/25 08:20:56;;;;;;;12.10;9.80;;;;;;;23.94;100.00;100927.41;105835;1256;60527;-42
2023/06/25 08:23:25;;;;;;;10.90;9.80;;;;;;;24.00;100.00;100915.95;105831;1256;60509;-44
2023/06/25 08:25:53;;;;;;;10.40;9.10;;;;;;;24.04;100.00;100894.95;105827;1251;73796;-41
2023/06/25 08:28:21;;;;;;;16.00;9.10;;;;;;;24.15;100.00;100872.13;105884;1256;64012;-45
2023/06/25 08:30:49;;;;;;;11.60;9.30;;;;;;;24.26;100.00;100853.06;105767;1254;71687;-43
2023/06/25 08:33:16;;;;;;;9.80;8.80;;;;;;;24.34;100.00;100734.17;105686;1254;60453;-43
2023/06/25 08:35:45;;;;;;;10.70;8.90;;;;;;;24.48;100.00;100690.66;105639;1257;60493;-44
2023/06/25 08:38:17;;;;;;;9.00;8.10;;;;;;;24.77;100.00;100757.91;105794;1251;73831;-42
2023/06/25 08:40:47;;;;;;;10.50;8.70;;;;;;;24.98;100.00;100667.93;105855;1256;64023;-42
2023/06/25 08:43:15;;;;;;;10.60;8.40;;;;;;;25.24;100.00;100667.75;105771;1257;72093;-44
2023/06/25 08:45:43;;;;;;;8.70;7.80;;;;;;;25.56;100.00;100687.02;105777;1253;60471;-43
2023/06/25 08:48:14;;;;;;;9.70;8.30;;;;;;;25.88;100.00;100620.91;105896;1256;60372;-42
2023/06/25 08:50:43;;;;;;;9.10;8.00;;;;;;;26.15;100.00;100561.61;105831;1252;72621;-44
2023/06/25 08:53:11;;;;;;;8.30;7.60;;;;;;;26.40;100.00;100540.20;105650;1257;64349;-45
2023/06/25 08:55:39;;;;;;;9.40;7.80;;;;;;;26.49;100.00;100331.59;105651;1254;72630;-43
2023/06/25 08:58:07;;;;;;;12.40;9.00;;;;;;;26.52;100.00;100229.44;105573;1254;60556;-44
2023/06/25 09:00:35;;;;;;;9.10;8.20;;;;;;;26.51;100.00;100170.91;105610;1253;60473;-42
2023/06/25 09:03:03;;;;;;;14.90;8.80;;;;;;;26.58;100.00;100143.30;105582;1254;73820;-42
2023/06/25 09:05:32;;;;;;;11.10;8.90;;;;;;;26.58;100.00;100133.55;105523;1254;64357;-43
2023/06/25 09:08:00;;;;;;;11.80;9.40;;;;;;;26.59;100.00;100207.70;105639;1254;71149;-43
2023/06/25 09:10:31;;;;;;;13.30;9.40;;;;;;;26.69;100.00;100271.91;105693;1259;60485;-42
2023/06/25 09:13:00;;;;;;;9.50;8.60;;;;;;;26.87;100.00;100302.05;105576;1259;60437;-44
2023/06/25 09:15:28;;;;;;;11.90;9.20;;;;;;;27.07;100.00;100266.86;105640;1254;72669;-44
2023/06/25 09:17:56;;;;;;;9.20;8.20;;;;;;;27.26;100.00;100264.14;105585;1258;63899;-44
2023/06/25 09:20:24;;;;;;;9.40;8.40;;;;;;;27.49;100.00;100222.17;105577;1254;71155;-45
2023/06/25 09:22:53;;;;;;;11.50;8.40;;;;;;;27.64;100.00;100157.80;105556;1257;60488;-43
2023/06/25 09:25:22;;;;;;;13.10;8.40;;;;;;;27.83;100.00;100143.00;105572;1258;60501;-45
2023/06/25 09:27:50;;;;;;;14.60;8.80;;;;;;;27.85;100.00;100015.24;105665;1254;73865;-44
2023/06/25 09:30:18;;;;;;;15.70;9.90;;;;;;;27.73;100.00;99983.83;105641;1259;63916;-44
2023/06/25 09:32:54;;;;;;;11.00;8.90;;;;;;;27.85;100.00;100039.37;105624;1260;71447;-42
2023/06/25 09:35:25;;;;;;;12.30;8.60;;;;;;;28.24;100.00;100082.90;105689;1254;60474;-42
2023/06/25 09:37:53;;;;;;;12.50;8.50;;;;;;;28.69;100.00;100029.81;105726;1257;60354;-44
2023/06/25 09:40:21;;;;;;;12.70;9.20;;;;;;;29.10;100.00;99972.85;105665;1253;72595;-42
2023/06/25 09:42:52;;;;;;;12.50;8.80;;;;;;;29.45;100.00;99980.42;105550;1254;64005;-45
2023/06/25 09:45:21;;;;;;;12.10;8.90;;;;;;;29.83;100.00;100022.95;105775;1255;71462;-45
2023/06/25 09:47:49;;;;;;;14.50;9.20;;;;;;;30.02;100.00;100095.31;105659;1254;60508;-43
2023/06/25 09:50:27;;;;;;;14.50;9.40;;;;;;;29.74;100.00;100167.23;105691;1258;60361;-44
2023/06/25 09:52:57;;;;;;;13.60;8.30;;;;;;;29.34;100.00;100177.23;105674;1252;72682;-43
2023/06/25 09:55:27;;;;;;;13.20;8.80;;;;;;;29.17;100.00;100166.98;105594;1254;65821;-45
2023/06/25 09:57:54;;;;;;;10.30;8.10;;;;;;;28.99;100.00;100149.98;105836;1255;71433;-42
2023/06/25 10:00:23;;;;;;;10.20;9.10;;;;;;;28.73;100.00;100161.66;105623;1257;60534;-42
2023/06/25 10:02:52;;;;;;;12.30;8.70;;;;;;;28.52;100.00;100141.52;105638;1257;60347;-44
2023/06/25 10:05:20;;;;;;;10.60;7.80;;;;;;;28.40;100.00;100102.92;105677;1254;72538;-42
2023/06/25 10:07:48;;;;;;;13.50;8.60;;;;;;;28.42;100.00;100056.12;105629;1257;63925;-42
2023/06/25 10:10:36;;;;;;;11.10;8.10;;;;;;;28.44;100.00;100031.45;105587;1254;72688;-42
2023/06/25 10:13:05;;;;;;;10.00;7.80;;;;;;;28.49;100.00;100022.60;105573;1254;60462;-44
2023/06/25 10:15:35;;;;;;;11.50;8.20;;;;;;;28.47;100.00;100040.16;105705;1253;60425;-44
2023/06/25 10:18:05;;;;;;;10.60;8.40;;;;;;;28.35;100.00;100072.89;105568;1258;73871;-44
2023/06/25 10:20:34;;;;;;;10.70;9.20;;;;;;;28.17;100.00;100085.86;105775;1254;64133;-42
2023/06/25 10:23:12;;;;;;;11.00;8.90;;;;;;;27.96;100.00;100075.66;105622;1258;71368;-42
2023/06/25 10:25:51;;;;;;;9.60;8.20;;;;;;;27.81;100.00;100062.23;105651;1254;62606;-43
2023/06/25 10:28:19;;;;;;;12.10;8.20;;;;;;;27.52;100.00;100075.65;105983;1254;60342;-44
2023/06/25 10:30:49;;;;;;;15.40;9.10;;;;;;;27.28;100.00;100064.42;105627;1254;72731;-41
2023/06/25 10:33:20;;;;;;;10.60;9.10;;;;;;;27.13;100.00;100052.77;105696;1254;64015;-44
2023/06/25 10:35:54;;;;;;;13.60;8.40;;;;;;;27.04;100.00;100038.54;105597;1255;72744;-44
2023/06/25 10:38:23;;;;;;;11.10;8.80;;;;;;;27.04;100.00;100026.84;105648;1253;61085;-42
2023/06/25 10:40:50;;;;;;;12.60;8.40;;;;;;;27.02;100.00;100024.23;105698;1254;61947;-41
2023/06/25 10:43:19;;;;;;;10.30;8.10;;;;;;;27.03;100.00;100020.90;105693;1253;72654;-42
2023/06/25 10:45:53;;;;;;;9.60;8.30;;;;;;;27.16;100.00;100025.88;105630;1254;64273;-43
2023/06/25 10:48:22;;;;;;;9.90;8.20;;;;;;;27.40;100.00;100021.44;105664;1254;72041;-42
2023/06/25 10:50:51;;;;;;;10.20;8.80;;;;;;;27.59;100.00;100008.32;105577;1258;61698;-43
2023/06/25 10:53:20;;;;;;;13.40;8.60;;;;;;;27.76;100.00;99998.71;105611;1254;62246;-42
2023/06/25 10:55:50;;;;;;;12.90;8.10;;;;;;;27.87;100.00;99995.71;105797;1257;73769;-43
2023/06/25 10:58:20;;;;;;;14.70;8.60;;;;;;;27.85;100.00;100026.19;105827;1256;65302;-43
2023/06/25 11:00:57;;;;;;;9.50;8.60;;;;;;;27.81;100.00;100029.63;105808;1256;72707;-42
2023/06/25 11:03:25;;;;;;;11.70;8.50;;;;;;;28.00;100.00;100025.45;105668;1260;60508;-42
2023/06/25 11:05:57;;;;;;;12.90;8.90;;;;;;;28.05;100.00;100056.11;105537;1257;60370;-44
2023/06/25 11:08:25;;;;;;;15.60;9.30;;;;;;;28.30;100.00;100039.13;105726;1254;72592;-45